Country
Station

 

Weather  for  Rodez  -  France    France

  
22 °C (72 °F)
    
 
 

Current METAR for Rodez is :

LFCR 021100Z AUTO 31003KT 250V060 9999 FEW033 SCT041 22/13 Q1017 NOSIG

 

This is a report for Rodez - France.
 
The report was made 28 minutes ago, at 11:00 UTC .
The wind was blowing at a speed of 1.5 meters per second (3.5 miles per hour) from northwest (310°), varying between west/southwest (250°) and east/northeast (060°).
 
The temperature was 22 °C (72 °F), with a dew-point at 13 °C (55 °F).
The temperature felt like 24 °C (76 °F).
 
The atmospheric pressure was 1017 hPa (30.03 inHg).
The relative humidity was 56.7%.
 
There were a few clouds at a height of 1006 meters (3300 feet) and scattered clouds at a height of 1250 meters (4100 feet).
 
The overall visibility was greater than 10 kilometers (6.2 miles).
 

 
 
 
 

Country :   A   B   C   D   E   F   G   H   I   J   K   L   M   N   O   P   Q   R   S   T   U   V   W   Y   Z

 

Site Info  |  Disclaimer  |  Credits  |  Privacy
Contact us  |  Add to favorites
© 2013-2020 METARs - All rights reserved